sensor_id;sensor_type;location;lat;lon;timestamp;P1;durP1;ratioP1;P2;durP2;ratioP2
25838;SDS011;13669;50.186;27.062;2022-10-16T00:01:36;6.25;;;3.13;;
25838;SDS011;13669;50.186;27.062;2022-10-16T00:04:05;6.82;;;3.42;;
25838;SDS011;13669;50.186;27.062;2022-10-16T00:06:32;4.88;;;2.70;;
25838;SDS011;13669;50.186;27.062;2022-10-16T00:09:00;6.35;;;2.88;;
25838;SDS011;13669;50.186;27.062;2022-10-16T00:11:29;6.72;;;3.00;;
25838;SDS011;13669;50.186;27.062;2022-10-16T00:14:04;6.05;;;3.35;;
25838;SDS011;13669;50.186;27.062;2022-10-16T00:16:34;6.57;;;3.40;;
25838;SDS011;13669;50.186;27.062;2022-10-16T00:19:02;7.75;;;3.60;;
25838;SDS011;13669;50.186;27.062;2022-10-16T00:21:30;7.30;;;3.20;;
25838;SDS011;13669;50.186;27.062;2022-10-16T00:23:59;10.27;;;3.03;;
25838;SDS011;13669;50.186;27.062;2022-10-16T00:26:30;7.10;;;2.95;;
25838;SDS011;13669;50.186;27.062;2022-10-16T00:28:58;9.73;;;3.30;;
25838;SDS011;13669;50.186;27.062;2022-10-16T00:31:26;7.65;;;3.35;;
25838;SDS011;13669;50.186;27.062;2022-10-16T00:33:54;8.45;;;3.25;;
25838;SDS011;13669;50.186;27.062;2022-10-16T00:36:22;7.97;;;3.00;;
25838;SDS011;13669;50.186;27.062;2022-10-16T00:38:52;6.95;;;3.50;;
25838;SDS011;13669;50.186;27.062;2022-10-16T00:41:23;9.13;;;3.17;;
25838;SDS011;13669;50.186;27.062;2022-10-16T00:43:56;6.95;;;3.08;;
25838;SDS011;13669;50.186;27.062;2022-10-16T00:46:25;7.43;;;3.20;;
25838;SDS011;13669;50.186;27.062;2022-10-16T00:49:01;9.02;;;3.45;;
25838;SDS011;13669;50.186;27.062;2022-10-16T00:51:31;10.30;;;3.50;;
25838;SDS011;13669;50.186;27.062;2022-10-16T00:54:02;6.85;;;3.78;;
25838;SDS011;13669;50.186;27.062;2022-10-16T00:56:33;7.18;;;3.80;;
25838;SDS011;13669;50.186;27.062;2022-10-16T00:59:01;7.97;;;3.65;;
25838;SDS011;13669;50.186;27.062;2022-10-16T01:01:34;7.93;;;3.28;;
25838;SDS011;13669;50.186;27.062;2022-10-16T01:04:02;8.32;;;3.53;;
25838;SDS011;13669;50.186;27.062;2022-10-16T01:14:37;7.95;;;3.45;;
25838;SDS011;13669;50.186;27.062;2022-10-16T01:22:33;7.82;;;3.65;;
25838;SDS011;13669;50.186;27.062;2022-10-16T01:25:18;9.07;;;4.45;;
25838;SDS011;13669;50.186;27.062;2022-10-16T01:27:53;6.50;;;3.88;;
25838;SDS011;13669;50.186;27.062;2022-10-16T01:30:24;10.52;;;4.55;;
25838;SDS011;13669;50.186;27.062;2022-10-16T01:35:48;10.98;;;4.50;;
25838;SDS011;13669;50.186;27.062;2022-10-16T01:38:28;16.30;;;4.47;;
25838;SDS011;13669;50.186;27.062;2022-10-16T01:41:01;9.55;;;4.35;;
25838;SDS011;13669;50.186;27.062;2022-10-16T01:43:38;7.43;;;4.10;;
25838;SDS011;13669;50.186;27.062;2022-10-16T01:46:13;7.80;;;3.83;;
25838;SDS011;13669;50.186;27.062;2022-10-16T01:48:43;7.53;;;4.03;;
25838;SDS011;13669;50.186;27.062;2022-10-16T01:51:12;8.30;;;4.35;;
25838;SDS011;13669;50.186;27.062;2022-10-16T01:53:41;8.20;;;3.60;;
25838;SDS011;13669;50.186;27.062;2022-10-16T01:56:13;8.63;;;3.72;;
25838;SDS011;13669;50.186;27.062;2022-10-16T01:58:45;7.88;;;3.55;;
25838;SDS011;13669;50.186;27.062;2022-10-16T02:01:17;10.18;;;4.38;;
25838;SDS011;13669;50.186;27.062;2022-10-16T02:03:48;10.63;;;4.13;;
25838;SDS011;13669;50.186;27.062;2022-10-16T02:06:20;8.98;;;3.47;;
25838;SDS011;13669;50.186;27.062;2022-10-16T02:08:48;7.05;;;3.63;;
25838;SDS011;13669;50.186;27.062;2022-10-16T02:11:16;7.28;;;3.97;;
25838;SDS011;13669;50.186;27.062;2022-10-16T02:13:44;8.20;;;4.20;;
25838;SDS011;13669;50.186;27.062;2022-10-16T02:16:15;7.13;;;4.00;;
25838;SDS011;13669;50.186;27.062;2022-10-16T02:18:42;8.70;;;3.67;;
25838;SDS011;13669;50.186;27.062;2022-10-16T02:21:19;9.55;;;3.88;;
25838;SDS011;13669;50.186;27.062;2022-10-16T02:26:30;8.25;;;3.97;;
25838;SDS011;13669;50.186;27.062;2022-10-16T02:29:05;7.35;;;3.88;;
25838;SDS011;13669;50.186;27.062;2022-10-16T02:31:38;7.82;;;3.97;;
25838;SDS011;13669;50.186;27.062;2022-10-16T02:34:10;8.90;;;3.90;;
25838;SDS011;13669;50.186;27.062;2022-10-16T02:36:40;8.45;;;4.32;;
25838;SDS011;13669;50.186;27.062;2022-10-16T02:39:09;8.68;;;4.18;;
25838;SDS011;13669;50.186;27.062;2022-10-16T02:41:37;9.13;;;4.32;;
25838;SDS011;13669;50.186;27.062;2022-10-16T02:44:05;11.90;;;4.53;;
25838;SDS011;13669;50.186;27.062;2022-10-16T02:46:32;7.93;;;3.63;;
25838;SDS011;13669;50.186;27.062;2022-10-16T02:49:00;7.40;;;4.18;;
25838;SDS011;13669;50.186;27.062;2022-10-16T02:51:27;10.85;;;4.35;;
25838;SDS011;13669;50.186;27.062;2022-10-16T02:53:55;11.27;;;4.43;;
25838;SDS011;13669;50.186;27.062;2022-10-16T02:56:22;10.15;;;4.50;;
25838;SDS011;13669;50.186;27.062;2022-10-16T02:58:50;12.07;;;4.90;;
25838;SDS011;13669;50.186;27.062;2022-10-16T03:01:18;7.95;;;4.38;;
25838;SDS011;13669;50.186;27.062;2022-10-16T03:03:45;12.38;;;4.50;;
25838;SDS011;13669;50.186;27.062;2022-10-16T03:06:13;9.30;;;4.13;;
25838;SDS011;13669;50.186;27.062;2022-10-16T03:08:40;8.38;;;4.50;;
25838;SDS011;13669;50.186;27.062;2022-10-16T03:11:08;8.80;;;4.03;;
25838;SDS011;13669;50.186;27.062;2022-10-16T03:13:35;8.50;;;4.18;;
25838;SDS011;13669;50.186;27.062;2022-10-16T03:16:03;9.85;;;4.53;;
25838;SDS011;13669;50.186;27.062;2022-10-16T03:18:31;8.98;;;4.35;;
25838;SDS011;13669;50.186;27.062;2022-10-16T03:20:58;9.57;;;4.20;;
25838;SDS011;13669;50.186;27.062;2022-10-16T03:23:26;10.43;;;4.88;;
25838;SDS011;13669;50.186;27.062;2022-10-16T03:25:53;9.68;;;4.18;;
25838;SDS011;13669;50.186;27.062;2022-10-16T03:28:21;8.98;;;4.70;;
25838;SDS011;13669;50.186;27.062;2022-10-16T03:30:48;10.82;;;5.03;;
25838;SDS011;13669;50.186;27.062;2022-10-16T03:33:16;10.65;;;4.78;;
25838;SDS011;13669;50.186;27.062;2022-10-16T03:35:43;8.57;;;4.45;;
25838;SDS011;13669;50.186;27.062;2022-10-16T03:38:19;8.07;;;4.82;;
25838;SDS011;13669;50.186;27.062;2022-10-16T03:40:46;11.05;;;5.13;;
25838;SDS011;13669;50.186;27.062;2022-10-16T03:43:14;11.35;;;5.07;;
25838;SDS011;13669;50.186;27.062;2022-10-16T03:45:41;9.93;;;4.72;;
25838;SDS011;13669;50.186;27.062;2022-10-16T03:48:10;12.32;;;5.32;;
25838;SDS011;13669;50.186;27.062;2022-10-16T03:50:38;9.27;;;4.57;;
25838;SDS011;13669;50.186;27.062;2022-10-16T03:53:05;11.30;;;4.95;;
25838;SDS011;13669;50.186;27.062;2022-10-16T03:55:33;12.52;;;4.88;;
25838;SDS011;13669;50.186;27.062;2022-10-16T03:58:01;11.70;;;4.95;;
25838;SDS011;13669;50.186;27.062;2022-10-16T04:00:28;12.00;;;5.35;;
25838;SDS011;13669;50.186;27.062;2022-10-16T04:02:56;11.63;;;4.60;;
25838;SDS011;13669;50.186;27.062;2022-10-16T04:05:23;12.45;;;4.97;;
25838;SDS011;13669;50.186;27.062;2022-10-16T04:07:51;11.45;;;5.00;;
25838;SDS011;13669;50.186;27.062;2022-10-16T04:10:18;8.85;;;4.60;;
25838;SDS011;13669;50.186;27.062;2022-10-16T04:12:46;11.98;;;5.10;;
25838;SDS011;13669;50.186;27.062;2022-10-16T04:15:13;13.90;;;5.07;;
25838;SDS011;13669;50.186;27.062;2022-10-16T04:17:40;13.50;;;4.65;;
25838;SDS011;13669;50.186;27.062;2022-10-16T04:20:08;10.48;;;4.35;;
25838;SDS011;13669;50.186;27.062;2022-10-16T04:22:36;9.25;;;4.43;;
25838;SDS011;13669;50.186;27.062;2022-10-16T04:25:03;11.35;;;5.10;;
25838;SDS011;13669;50.186;27.062;2022-10-16T04:27:31;8.95;;;4.60;;
25838;SDS011;13669;50.186;27.062;2022-10-16T04:29:59;11.60;;;4.93;;
25838;SDS011;13669;50.186;27.062;2022-10-16T04:32:27;12.55;;;4.88;;
25838;SDS011;13669;50.186;27.062;2022-10-16T04:34:54;13.50;;;5.20;;
25838;SDS011;13669;50.186;27.062;2022-10-16T04:37:26;14.52;;;5.70;;
25838;SDS011;13669;50.186;27.062;2022-10-16T04:39:54;17.92;;;7.10;;
25838;SDS011;13669;50.186;27.062;2022-10-16T04:42:22;14.45;;;5.53;;
25838;SDS011;13669;50.186;27.062;2022-10-16T04:44:49;14.70;;;5.00;;
25838;SDS011;13669;50.186;27.062;2022-10-16T04:47:17;12.15;;;5.28;;
25838;SDS011;13669;50.186;27.062;2022-10-16T04:49:44;16.10;;;4.88;;
25838;SDS011;13669;50.186;27.062;2022-10-16T04:52:11;10.93;;;5.22;;
25838;SDS011;13669;50.186;27.062;2022-10-16T04:54:39;10.60;;;4.68;;
25838;SDS011;13669;50.186;27.062;2022-10-16T04:57:06;12.73;;;4.97;;
25838;SDS011;13669;50.186;27.062;2022-10-16T04:59:34;10.90;;;4.70;;
25838;SDS011;13669;50.186;27.062;2022-10-16T05:02:01;9.95;;;5.18;;
25838;SDS011;13669;50.186;27.062;2022-10-16T05:04:29;10.38;;;4.63;;
25838;SDS011;13669;50.186;27.062;2022-10-16T05:06:56;13.18;;;5.40;;
25838;SDS011;13669;50.186;27.062;2022-10-16T05:09:23;16.98;;;4.35;;
25838;SDS011;13669;50.186;27.062;2022-10-16T05:11:51;10.75;;;4.28;;
25838;SDS011;13669;50.186;27.062;2022-10-16T05:14:18;11.82;;;4.65;;
25838;SDS011;13669;50.186;27.062;2022-10-16T05:16:46;11.27;;;4.47;;
25838;SDS011;13669;50.186;27.062;2022-10-16T05:19:14;11.15;;;5.38;;
25838;SDS011;13669;50.186;27.062;2022-10-16T05:21:53;13.35;;;4.97;;
25838;SDS011;13669;50.186;27.062;2022-10-16T05:24:21;13.35;;;5.03;;
25838;SDS011;13669;50.186;27.062;2022-10-16T05:26:49;15.57;;;5.53;;
25838;SDS011;13669;50.186;27.062;2022-10-16T05:29:17;11.00;;;5.88;;
25838;SDS011;13669;50.186;27.062;2022-10-16T05:31:44;10.32;;;5.43;;
25838;SDS011;13669;50.186;27.062;2022-10-16T05:34:12;13.80;;;6.20;;
25838;SDS011;13669;50.186;27.062;2022-10-16T05:36:39;9.32;;;5.43;;
25838;SDS011;13669;50.186;27.062;2022-10-16T05:39:07;10.35;;;5.10;;
25838;SDS011;13669;50.186;27.062;2022-10-16T05:41:34;10.60;;;4.53;;
25838;SDS011;13669;50.186;27.062;2022-10-16T05:44:05;10.13;;;4.82;;
25838;SDS011;13669;50.186;27.062;2022-10-16T05:46:32;8.25;;;4.60;;
25838;SDS011;13669;50.186;27.062;2022-10-16T05:49:00;10.63;;;4.70;;
25838;SDS011;13669;50.186;27.062;2022-10-16T05:51:28;10.10;;;5.15;;
25838;SDS011;13669;50.186;27.062;2022-10-16T05:53:55;8.65;;;4.32;;
25838;SDS011;13669;50.186;27.062;2022-10-16T05:56:23;12.20;;;5.10;;
25838;SDS011;13669;50.186;27.062;2022-10-16T05:58:50;8.85;;;4.40;;
25838;SDS011;13669;50.186;27.062;2022-10-16T06:01:18;12.13;;;4.45;;
25838;SDS011;13669;50.186;27.062;2022-10-16T06:03:46;10.23;;;5.40;;
25838;SDS011;13669;50.186;27.062;2022-10-16T06:06:14;9.35;;;4.15;;
25838;SDS011;13669;50.186;27.062;2022-10-16T06:08:43;10.00;;;4.63;;
25838;SDS011;13669;50.186;27.062;2022-10-16T06:13:49;8.85;;;4.30;;
25838;SDS011;13669;50.186;27.062;2022-10-16T06:16:18;10.55;;;4.35;;
25838;SDS011;13669;50.186;27.062;2022-10-16T06:18:46;10.90;;;4.65;;
25838;SDS011;13669;50.186;27.062;2022-10-16T06:21:15;12.02;;;5.50;;
25838;SDS011;13669;50.186;27.062;2022-10-16T06:23:44;18.80;;;6.60;;
25838;SDS011;13669;50.186;27.062;2022-10-16T06:26:16;14.45;;;5.75;;
25838;SDS011;13669;50.186;27.062;2022-10-16T06:28:45;18.38;;;6.00;;
25838;SDS011;13669;50.186;27.062;2022-10-16T06:31:14;13.80;;;5.03;;
25838;SDS011;13669;50.186;27.062;2022-10-16T06:33:42;12.20;;;5.85;;
25838;SDS011;13669;50.186;27.062;2022-10-16T06:36:12;9.35;;;4.00;;
25838;SDS011;13669;50.186;27.062;2022-10-16T06:38:41;9.68;;;4.05;;
25838;SDS011;13669;50.186;27.062;2022-10-16T06:41:09;8.07;;;3.95;;
25838;SDS011;13669;50.186;27.062;2022-10-16T06:43:39;7.13;;;3.72;;
25838;SDS011;13669;50.186;27.062;2022-10-16T06:46:07;14.60;;;4.78;;
25838;SDS011;13669;50.186;27.062;2022-10-16T06:48:37;7.50;;;3.72;;
25838;SDS011;13669;50.186;27.062;2022-10-16T06:51:06;8.50;;;4.13;;
25838;SDS011;13669;50.186;27.062;2022-10-16T06:56:26;12.27;;;4.25;;
25838;SDS011;13669;50.186;27.062;2022-10-16T07:01:24;9.32;;;4.03;;
25838;SDS011;13669;50.186;27.062;2022-10-16T07:03:51;10.07;;;4.10;;
25838;SDS011;13669;50.186;27.062;2022-10-16T07:06:20;11.85;;;4.38;;
25838;SDS011;13669;50.186;27.062;2022-10-16T07:08:49;9.02;;;4.18;;
25838;SDS011;13669;50.186;27.062;2022-10-16T07:11:18;9.52;;;5.15;;
25838;SDS011;13669;50.186;27.062;2022-10-16T07:13:47;12.00;;;4.37;;
25838;SDS011;13669;50.186;27.062;2022-10-16T07:16:28;8.57;;;5.22;;
25838;SDS011;13669;50.186;27.062;2022-10-16T07:18:58;11.05;;;4.50;;
25838;SDS011;13669;50.186;27.062;2022-10-16T07:21:28;8.02;;;4.03;;
25838;SDS011;13669;50.186;27.062;2022-10-16T07:24:04;9.15;;;4.43;;
25838;SDS011;13669;50.186;27.062;2022-10-16T07:26:34;9.40;;;5.28;;
25838;SDS011;13669;50.186;27.062;2022-10-16T07:29:03;8.98;;;4.00;;
25838;SDS011;13669;50.186;27.062;2022-10-16T07:31:30;13.60;;;4.30;;
25838;SDS011;13669;50.186;27.062;2022-10-16T07:33:58;11.23;;;4.20;;
25838;SDS011;13669;50.186;27.062;2022-10-16T07:36:27;8.25;;;3.83;;
25838;SDS011;13669;50.186;27.062;2022-10-16T07:38:54;10.50;;;3.92;;
25838;SDS011;13669;50.186;27.062;2022-10-16T07:41:26;9.85;;;4.32;;
25838;SDS011;13669;50.186;27.062;2022-10-16T07:43:56;13.95;;;4.88;;
25838;SDS011;13669;50.186;27.062;2022-10-16T07:46:27;8.65;;;4.10;;
25838;SDS011;13669;50.186;27.062;2022-10-16T07:48:55;7.95;;;3.70;;
25838;SDS011;13669;50.186;27.062;2022-10-16T07:51:23;7.80;;;3.17;;
25838;SDS011;13669;50.186;27.062;2022-10-16T07:53:52;8.23;;;3.38;;
25838;SDS011;13669;50.186;27.062;2022-10-16T07:56:19;7.75;;;3.10;;
25838;SDS011;13669;50.186;27.062;2022-10-16T07:58:48;6.00;;;2.88;;
25838;SDS011;13669;50.186;27.062;2022-10-16T08:01:17;8.50;;;3.42;;
25838;SDS011;13669;50.186;27.062;2022-10-16T08:03:46;5.03;;;2.72;;
25838;SDS011;13669;50.186;27.062;2022-10-16T08:06:18;5.63;;;3.28;;
25838;SDS011;13669;50.186;27.062;2022-10-16T08:08:54;9.52;;;3.17;;
25838;SDS011;13669;50.186;27.062;2022-10-16T08:11:22;5.85;;;3.05;;
25838;SDS011;13669;50.186;27.062;2022-10-16T08:13:50;5.88;;;3.50;;
25838;SDS011;13669;50.186;27.062;2022-10-16T08:16:17;6.80;;;3.50;;
25838;SDS011;13669;50.186;27.062;2022-10-16T08:18:45;9.60;;;3.20;;
25838;SDS011;13669;50.186;27.062;2022-10-16T08:21:14;4.35;;;2.50;;
25838;SDS011;13669;50.186;27.062;2022-10-16T08:23:47;7.55;;;3.20;;
25838;SDS011;13669;50.186;27.062;2022-10-16T08:26:24;7.10;;;3.30;;
25838;SDS011;13669;50.186;27.062;2022-10-16T08:28:53;12.07;;;3.58;;
25838;SDS011;13669;50.186;27.062;2022-10-16T08:31:21;9.25;;;3.40;;
25838;SDS011;13669;50.186;27.062;2022-10-16T08:33:49;5.18;;;3.15;;
25838;SDS011;13669;50.186;27.062;2022-10-16T08:36:18;6.93;;;3.33;;
25838;SDS011;13669;50.186;27.062;2022-10-16T08:38:48;6.97;;;3.10;;
25838;SDS011;13669;50.186;27.062;2022-10-16T08:49:35;5.68;;;2.65;;
25838;SDS011;13669;50.186;27.062;2022-10-16T08:52:04;6.15;;;2.40;;
25838;SDS011;13669;50.186;27.062;2022-10-16T08:54:37;6.97;;;3.00;;
25838;SDS011;13669;50.186;27.062;2022-10-16T08:57:14;6.18;;;2.75;;
25838;SDS011;13669;50.186;27.062;2022-10-16T08:59:50;6.00;;;2.90;;
25838;SDS011;13669;50.186;27.062;2022-10-16T09:02:22;4.47;;;2.25;;
25838;SDS011;13669;50.186;27.062;2022-10-16T09:18:52;5.70;;;2.35;;
25838;SDS011;13669;50.186;27.062;2022-10-16T09:21:28;5.80;;;1.85;;
25838;SDS011;13669;50.186;27.062;2022-10-16T09:24:13;8.95;;;2.60;;
25838;SDS011;13669;50.186;27.062;2022-10-16T09:26:46;3.83;;;1.88;;
25838;SDS011;13669;50.186;27.062;2022-10-16T09:29:14;5.22;;;2.08;;
25838;SDS011;13669;50.186;27.062;2022-10-16T09:31:43;5.03;;;2.45;;
25838;SDS011;13669;50.186;27.062;2022-10-16T09:34:18;9.18;;;2.50;;
25838;SDS011;13669;50.186;27.062;2022-10-16T09:36:51;6.63;;;2.72;;
25838;SDS011;13669;50.186;27.062;2022-10-16T09:39:18;7.82;;;3.15;;
25838;SDS011;13669;50.186;27.062;2022-10-16T09:41:46;4.40;;;2.30;;
25838;SDS011;13669;50.186;27.062;2022-10-16T09:44:34;5.72;;;2.30;;
25838;SDS011;13669;50.186;27.062;2022-10-16T09:47:05;4.90;;;2.42;;
25838;SDS011;13669;50.186;27.062;2022-10-16T09:49:38;10.57;;;3.30;;
25838;SDS011;13669;50.186;27.062;2022-10-16T09:52:11;5.80;;;2.42;;
25838;SDS011;13669;50.186;27.062;2022-10-16T09:54:50;3.63;;;2.08;;
25838;SDS011;13669;50.186;27.062;2022-10-16T09:59:50;5.68;;;1.70;;
25838;SDS011;13669;50.186;27.062;2022-10-16T10:02:21;3.22;;;1.70;;
25838;SDS011;13669;50.186;27.062;2022-10-16T10:05:17;8.40;;;2.17;;
25838;SDS011;13669;50.186;27.062;2022-10-16T10:07:53;3.63;;;1.70;;
25838;SDS011;13669;50.186;27.062;2022-10-16T10:10:33;5.45;;;2.22;;
25838;SDS011;13669;50.186;27.062;2022-10-16T10:13:21;5.90;;;2.17;;
25838;SDS011;13669;50.186;27.062;2022-10-16T10:15:51;4.63;;;1.95;;
25838;SDS011;13669;50.186;27.062;2022-10-16T10:18:20;6.53;;;1.90;;
25838;SDS011;13669;50.186;27.062;2022-10-16T10:20:59;7.35;;;1.92;;
25838;SDS011;13669;50.186;27.062;2022-10-16T10:23:28;2.80;;;1.50;;
25838;SDS011;13669;50.186;27.062;2022-10-16T10:45:17;4.32;;;2.20;;
25838;SDS011;13669;50.186;27.062;2022-10-16T10:53:56;3.58;;;1.77;;
25838;SDS011;13669;50.186;27.062;2022-10-16T10:56:59;4.22;;;1.85;;
25838;SDS011;13669;50.186;27.062;2022-10-16T11:05:41;3.85;;;1.52;;
25838;SDS011;13669;50.186;27.062;2022-10-16T11:08:19;7.20;;;3.17;;
25838;SDS011;13669;50.186;27.062;2022-10-16T11:10:55;4.10;;;2.10;;
25838;SDS011;13669;50.186;27.062;2022-10-16T11:13:29;4.28;;;2.42;;
25838;SDS011;13669;50.186;27.062;2022-10-16T11:16:31;4.85;;;2.80;;
25838;SDS011;13669;50.186;27.062;2022-10-16T11:19:08;5.47;;;2.20;;
25838;SDS011;13669;50.186;27.062;2022-10-16T11:21:45;5.00;;;1.90;;
25838;SDS011;13669;50.186;27.062;2022-10-16T11:27:39;7.13;;;1.92;;
25838;SDS011;13669;50.186;27.062;2022-10-16T11:30:14;4.05;;;1.55;;
25838;SDS011;13669;50.186;27.062;2022-10-16T11:38:29;3.65;;;1.33;;
25838;SDS011;13669;50.186;27.062;2022-10-16T11:41:04;5.05;;;1.70;;
25838;SDS011;13669;50.186;27.062;2022-10-16T11:46:57;4.22;;;2.20;;
25838;SDS011;13669;50.186;27.062;2022-10-16T11:50:00;6.05;;;1.52;;
25838;SDS011;13669;50.186;27.062;2022-10-16T11:52:42;4.80;;;2.17;;
25838;SDS011;13669;50.186;27.062;2022-10-16T11:55:20;5.53;;;1.60;;
25838;SDS011;13669;50.186;27.062;2022-10-16T11:57:51;3.70;;;1.80;;
25838;SDS011;13669;50.186;27.062;2022-10-16T12:00:26;3.45;;;1.60;;
25838;SDS011;13669;50.186;27.062;2022-10-16T12:08:37;4.25;;;2.05;;
25838;SDS011;13669;50.186;27.062;2022-10-16T12:11:06;5.55;;;2.10;;
25838;SDS011;13669;50.186;27.062;2022-10-16T12:16:39;4.20;;;2.13;;
25838;SDS011;13669;50.186;27.062;2022-10-16T12:19:19;5.60;;;2.30;;
25838;SDS011;13669;50.186;27.062;2022-10-16T12:21:47;3.50;;;1.98;;
25838;SDS011;13669;50.186;27.062;2022-10-16T12:24:35;9.60;;;2.38;;
25838;SDS011;13669;50.186;27.062;2022-10-16T12:27:06;4.95;;;2.53;;
25838;SDS011;13669;50.186;27.062;2022-10-16T12:30:03;8.02;;;4.70;;
25838;SDS011;13669;50.186;27.062;2022-10-16T12:32:35;4.97;;;2.55;;
25838;SDS011;13669;50.186;27.062;2022-10-16T12:35:23;4.63;;;1.50;;
25838;SDS011;13669;50.186;27.062;2022-10-16T12:38:07;4.55;;;1.80;;
25838;SDS011;13669;50.186;27.062;2022-10-16T12:40:44;6.18;;;1.55;;
25838;SDS011;13669;50.186;27.062;2022-10-16T12:48:26;5.03;;;1.70;;
25838;SDS011;13669;50.186;27.062;2022-10-16T12:54:12;5.63;;;1.60;;
25838;SDS011;13669;50.186;27.062;2022-10-16T13:24:21;5.93;;;2.60;;
25838;SDS011;13669;50.186;27.062;2022-10-16T13:27:07;8.52;;;3.00;;
25838;SDS011;13669;50.186;27.062;2022-10-16T13:29:51;6.82;;;2.83;;
25838;SDS011;13669;50.186;27.062;2022-10-16T13:32:22;6.30;;;2.50;;
25838;SDS011;13669;50.186;27.062;2022-10-16T13:34:49;7.32;;;3.03;;
25838;SDS011;13669;50.186;27.062;2022-10-16T13:37:19;5.72;;;2.92;;
25838;SDS011;13669;50.186;27.062;2022-10-16T13:39:48;5.57;;;2.80;;
25838;SDS011;13669;50.186;27.062;2022-10-16T13:42:24;5.63;;;2.35;;
25838;SDS011;13669;50.186;27.062;2022-10-16T13:44:55;4.28;;;2.30;;
25838;SDS011;13669;50.186;27.062;2022-10-16T13:47:24;6.60;;;2.05;;
25838;SDS011;13669;50.186;27.062;2022-10-16T13:50:09;5.05;;;2.20;;
25838;SDS011;13669;50.186;27.062;2022-10-16T13:52:39;5.18;;;2.53;;
25838;SDS011;13669;50.186;27.062;2022-10-16T13:57:40;5.15;;;3.15;;
25838;SDS011;13669;50.186;27.062;2022-10-16T14:00:18;6.65;;;2.92;;
25838;SDS011;13669;50.186;27.062;2022-10-16T14:02:50;6.55;;;2.70;;
25838;SDS011;13669;50.186;27.062;2022-10-16T14:08:19;5.38;;;2.40;;
25838;SDS011;13669;50.186;27.062;2022-10-16T14:10:50;4.97;;;2.35;;
25838;SDS011;13669;50.186;27.062;2022-10-16T14:13:28;6.78;;;2.55;;
25838;SDS011;13669;50.186;27.062;2022-10-16T14:16:05;6.82;;;2.53;;
25838;SDS011;13669;50.186;27.062;2022-10-16T14:18:36;6.82;;;3.28;;
25838;SDS011;13669;50.186;27.062;2022-10-16T14:21:06;7.85;;;4.13;;
25838;SDS011;13669;50.186;27.062;2022-10-16T14:23:37;4.72;;;2.47;;
25838;SDS011;13669;50.186;27.062;2022-10-16T14:28:37;5.18;;;3.10;;
25838;SDS011;13669;50.186;27.062;2022-10-16T14:33:46;5.53;;;2.70;;
25838;SDS011;13669;50.186;27.062;2022-10-16T14:36:14;9.23;;;3.28;;
25838;SDS011;13669;50.186;27.062;2022-10-16T14:38:58;11.00;;;3.80;;
25838;SDS011;13669;50.186;27.062;2022-10-16T14:41:35;10.52;;;4.70;;
25838;SDS011;13669;50.186;27.062;2022-10-16T14:44:10;13.30;;;5.18;;
25838;SDS011;13669;50.186;27.062;2022-10-16T14:46:39;9.52;;;4.95;;
25838;SDS011;13669;50.186;27.062;2022-10-16T14:51:36;12.93;;;5.15;;
25838;SDS011;13669;50.186;27.062;2022-10-16T14:54:10;11.75;;;4.75;;
25838;SDS011;13669;50.186;27.062;2022-10-16T14:59:18;12.52;;;5.13;;
25838;SDS011;13669;50.186;27.062;2022-10-16T15:01:51;13.48;;;4.35;;
25838;SDS011;13669;50.186;27.062;2022-10-16T15:04:19;11.27;;;4.50;;
25838;SDS011;13669;50.186;27.062;2022-10-16T15:06:47;11.10;;;4.63;;
25838;SDS011;13669;50.186;27.062;2022-10-16T15:09:14;8.75;;;4.47;;
25838;SDS011;13669;50.186;27.062;2022-10-16T15:11:42;12.38;;;4.95;;
25838;SDS011;13669;50.186;27.062;2022-10-16T15:14:11;12.40;;;6.10;;
25838;SDS011;13669;50.186;27.062;2022-10-16T15:19:08;13.18;;;4.88;;
25838;SDS011;13669;50.186;27.062;2022-10-16T15:21:35;13.18;;;5.45;;
25838;SDS011;13669;50.186;27.062;2022-10-16T15:24:04;23.05;;;11.38;;
25838;SDS011;13669;50.186;27.062;2022-10-16T15:26:36;9.25;;;4.53;;
25838;SDS011;13669;50.186;27.062;2022-10-16T15:29:03;8.63;;;4.40;;
25838;SDS011;13669;50.186;27.062;2022-10-16T15:31:31;13.50;;;5.38;;
25838;SDS011;13669;50.186;27.062;2022-10-16T15:33:59;9.15;;;4.70;;
25838;SDS011;13669;50.186;27.062;2022-10-16T15:36:32;10.73;;;4.43;;
25838;SDS011;13669;50.186;27.062;2022-10-16T15:39:03;16.08;;;6.47;;
25838;SDS011;13669;50.186;27.062;2022-10-16T15:41:32;9.88;;;3.78;;
25838;SDS011;13669;50.186;27.062;2022-10-16T15:44:00;12.77;;;4.72;;
25838;SDS011;13669;50.186;27.062;2022-10-16T15:46:27;9.80;;;4.70;;
25838;SDS011;13669;50.186;27.062;2022-10-16T15:48:58;25.25;;;12.07;;
25838;SDS011;13669;50.186;27.062;2022-10-16T15:51:26;15.52;;;7.07;;
25838;SDS011;13669;50.186;27.062;2022-10-16T15:53:56;10.97;;;5.00;;
25838;SDS011;13669;50.186;27.062;2022-10-16T15:56:23;8.88;;;4.15;;
25838;SDS011;13669;50.186;27.062;2022-10-16T15:58:52;8.82;;;4.28;;
25838;SDS011;13669;50.186;27.062;2022-10-16T16:01:20;8.30;;;4.15;;
25838;SDS011;13669;50.186;27.062;2022-10-16T16:03:51;20.50;;;9.10;;
25838;SDS011;13669;50.186;27.062;2022-10-16T16:06:20;17.48;;;6.68;;
25838;SDS011;13669;50.186;27.062;2022-10-16T16:08:50;15.60;;;7.13;;
25838;SDS011;13669;50.186;27.062;2022-10-16T16:11:18;13.45;;;6.72;;
25838;SDS011;13669;50.186;27.062;2022-10-16T16:13:47;19.40;;;7.93;;
25838;SDS011;13669;50.186;27.062;2022-10-16T16:16:15;15.20;;;7.40;;
25838;SDS011;13669;50.186;27.062;2022-10-16T16:18:44;19.50;;;9.15;;
25838;SDS011;13669;50.186;27.062;2022-10-16T16:21:12;13.07;;;5.75;;
25838;SDS011;13669;50.186;27.062;2022-10-16T16:23:39;11.20;;;5.32;;
25838;SDS011;13669;50.186;27.062;2022-10-16T16:26:14;16.40;;;5.63;;
25838;SDS011;13669;50.186;27.062;2022-10-16T16:28:53;14.75;;;5.13;;
25838;SDS011;13669;50.186;27.062;2022-10-16T16:31:26;12.55;;;5.43;;
25838;SDS011;13669;50.186;27.062;2022-10-16T16:33:55;22.88;;;6.50;;
25838;SDS011;13669;50.186;27.062;2022-10-16T16:36:23;16.75;;;6.50;;
25838;SDS011;13669;50.186;27.062;2022-10-16T16:38:51;20.88;;;6.93;;
25838;SDS011;13669;50.186;27.062;2022-10-16T16:41:20;20.35;;;7.22;;
25838;SDS011;13669;50.186;27.062;2022-10-16T16:43:49;14.15;;;7.10;;
25838;SDS011;13669;50.186;27.062;2022-10-16T16:46:18;20.90;;;8.68;;
25838;SDS011;13669;50.186;27.062;2022-10-16T16:48:46;15.77;;;6.97;;
25838;SDS011;13669;50.186;27.062;2022-10-16T16:51:17;18.98;;;8.20;;
25838;SDS011;13669;50.186;27.062;2022-10-16T16:53:50;21.88;;;7.88;;
25838;SDS011;13669;50.186;27.062;2022-10-16T16:56:19;17.27;;;7.75;;
25838;SDS011;13669;50.186;27.062;2022-10-16T16:58:49;20.48;;;7.97;;
25838;SDS011;13669;50.186;27.062;2022-10-16T17:01:19;15.95;;;6.97;;
25838;SDS011;13669;50.186;27.062;2022-10-16T17:03:48;17.75;;;6.47;;
25838;SDS011;13669;50.186;27.062;2022-10-16T17:06:19;11.32;;;5.30;;
25838;SDS011;13669;50.186;27.062;2022-10-16T17:08:48;13.40;;;4.93;;
25838;SDS011;13669;50.186;27.062;2022-10-16T17:11:17;11.38;;;5.07;;
25838;SDS011;13669;50.186;27.062;2022-10-16T17:13:49;14.23;;;5.22;;
25838;SDS011;13669;50.186;27.062;2022-10-16T17:16:24;14.73;;;4.70;;
25838;SDS011;13669;50.186;27.062;2022-10-16T17:19:00;12.82;;;4.63;;
25838;SDS011;13669;50.186;27.062;2022-10-16T17:21:28;12.65;;;4.80;;
25838;SDS011;13669;50.186;27.062;2022-10-16T17:23:57;9.68;;;4.30;;
25838;SDS011;13669;50.186;27.062;2022-10-16T17:26:26;10.52;;;3.95;;
25838;SDS011;13669;50.186;27.062;2022-10-16T17:28:55;9.63;;;3.95;;